Time;durP1;ratioP1;P1;durP2;ratioP2;P2;SDS_P1;SDS_P2;PMS_P1;PMS_P2;Temp;Humidity;BMP_temperature;BMP_pressure;BME280_temperature;BME280_humidity;BME280_pressure;Samples;Min_cycle;Max_cycle;Signal;HPM_P1;HPM_P2
2021/06/06 00:02:14;;;;;;;9.88;5.00;;;20.50;94.70;;;21.30;55.26;101420.53;5072910;28;20195;-68
2021/06/06 00:04:44;;;;;;;11.43;5.75;;;20.50;94.90;;;21.26;55.06;101417.22;5072925;28;20195;-67
2021/06/06 00:07:12;;;;;;;10.60;5.20;;;20.40;95.00;;;21.24;55.42;101411.16;5073081;28;20621;-68
2021/06/06 00:09:40;;;;;;;12.25;5.45;;;20.40;95.10;;;21.21;55.58;101410.50;5055433;28;20245;-69
2021/06/06 00:12:09;;;;;;;12.85;5.70;;;20.40;95.30;;;21.18;55.57;101414.25;5073061;28;20196;-69
2021/06/06 00:14:38;;;;;;;11.38;5.60;;;20.40;95.40;;;21.15;55.77;101417.97;5055139;28;20212;-69
2021/06/06 00:17:10;;;;;;;12.52;5.45;;;20.30;95.50;;;21.12;55.96;101425.31;5055722;28;20599;-69
2021/06/06 00:19:37;;;;;;;12.82;5.65;;;20.30;95.60;;;21.08;55.87;101426.50;5071995;28;20261;-66
2021/06/06 00:22:07;;;;;;;12.98;5.30;;;20.30;95.70;;;21.06;56.06;101423.09;5058845;28;20184;-69
2021/06/06 00:24:36;;;;;;;11.77;5.55;;;20.20;95.80;;;21.03;56.21;101423.31;5077216;28;20661;-67
2021/06/06 00:27:06;;;;;;;10.57;5.13;;;20.20;95.90;;;20.98;56.25;101426.28;5075988;28;20216;-67
2021/06/06 00:29:33;;;;;;;11.75;5.85;;;20.20;96.10;;;20.95;56.39;101415.81;5059587;28;20279;-67
2021/06/06 00:32:00;;;;;;;12.20;5.57;;;20.20;96.10;;;20.92;56.52;101418.69;5077130;28;20206;-67
2021/06/06 00:34:27;;;;;;;9.88;4.82;;;20.10;96.20;;;20.90;56.57;101412.63;5076391;28;20228;-67
2021/06/06 00:36:54;;;;;;;10.32;5.18;;;20.10;96.30;;;20.88;56.56;101414.53;5077865;28;20212;-68
2021/06/06 00:39:22;;;;;;;13.50;5.75;;;20.10;96.40;;;20.88;56.78;101419.00;5060496;28;20200;-68
2021/06/06 00:41:52;;;;;;;11.32;5.60;;;20.00;96.50;;;20.86;56.64;101428.91;5077268;28;20612;-67
2021/06/06 00:44:23;;;;;;;10.48;5.50;;;20.10;96.70;;;20.83;56.97;101416.66;5077250;28;20298;-68
2021/06/06 00:46:52;;;;;;;13.88;5.70;;;20.00;96.80;;;20.82;57.07;101419.41;5075448;28;20204;-67
2021/06/06 00:49:20;;;;;;;10.38;5.20;;;20.00;96.90;;;20.79;56.83;101425.81;5078034;28;20265;-67
2021/06/06 00:51:52;;;;;;;11.40;5.78;;;19.90;97.00;;;20.77;57.00;101421.53;5078308;28;20180;-67
2021/06/06 00:54:27;;;;;;;11.70;5.70;;;19.90;97.20;;;20.74;56.99;101422.63;5077740;28;20288;-68
2021/06/06 00:57:02;;;;;;;12.18;5.55;;;19.90;97.30;;;20.71;57.37;101421.97;5059428;28;20240;-69
2021/06/06 00:59:35;;;;;;;11.18;6.15;;;19.90;97.40;;;20.70;57.30;101425.56;5077837;28;20160;-67
2021/06/06 01:02:04;;;;;;;11.85;5.72;;;19.80;97.50;;;20.66;57.39;101427.63;5076706;28;20787;-67
2021/06/06 01:04:30;;;;;;;11.48;5.68;;;19.80;97.60;;;20.63;57.57;101417.16;5078552;28;20180;-68
2021/06/06 01:06:57;;;;;;;12.68;5.63;;;19.80;97.80;;;20.61;57.65;101420.88;5077164;28;20200;-68
2021/06/06 01:09:28;;;;;;;11.25;5.65;;;19.80;97.90;;;20.58;57.75;101423.75;5059034;28;20200;-68
2021/06/06 01:12:05;;;;;;;12.20;6.10;;;19.80;98.00;;;20.54;57.61;101420.47;5056021;28;20658;-67
2021/06/06 01:14:49;;;;;;;11.52;5.60;;;19.80;98.10;;;20.52;57.82;101417.03;5075480;28;20639;-68
2021/06/06 01:17:26;;;;;;;13.10;6.07;;;19.70;98.20;;;20.51;58.17;101419.81;5059363;28;20192;-66
2021/06/06 01:20:07;;;;;;;11.65;5.80;;;19.70;98.40;;;20.49;58.12;101427.03;5059464;28;20191;-67
2021/06/06 01:22:51;;;;;;;11.82;5.50;;;19.60;98.50;;;20.46;57.88;101420.09;5058878;28;20195;-68
2021/06/06 01:25:31;;;;;;;11.57;5.40;;;19.60;98.70;;;20.43;58.54;101420.31;5077336;28;20208;-68
2021/06/06 01:28:08;;;;;;;11.68;5.50;;;19.60;98.80;;;20.42;58.31;101420.41;5058912;28;20202;-67
2021/06/06 01:30:39;;;;;;;11.45;6.00;;;19.60;99.00;;;20.39;58.34;101420.63;5059346;28;20195;-67
2021/06/06 01:33:13;;;;;;;13.18;6.13;;;19.50;99.00;;;20.37;58.21;101418.06;5076714;28;20299;-66
2021/06/06 01:35:49;;;;;;;13.13;6.05;;;19.50;99.20;;;20.35;58.43;101424.44;5076092;28;20231;-69
2021/06/06 01:38:25;;;;;;;12.07;5.90;;;19.50;99.30;;;20.32;58.76;101422.84;5059834;28;20604;-67
2021/06/06 01:41:00;;;;;;;12.27;6.10;;;19.50;99.60;;;20.30;58.53;101415.91;5058610;28;20188;-67
2021/06/06 01:43:33;;;;;;;12.18;5.75;;;19.40;99.50;;;20.28;58.60;101417.84;5076001;28;20195;-67
2021/06/06 01:46:05;;;;;;;12.93;5.38;;;19.40;99.70;;;20.25;58.76;101418.00;5075774;28;20291;-67
2021/06/06 01:48:36;;;;;;;12.45;6.00;;;19.40;99.80;;;20.21;58.82;101414.69;5076397;28;20218;-67
2021/06/06 01:51:11;;;;;;;13.02;5.93;;;19.40;99.90;;;20.20;58.68;101414.81;5057318;28;20194;-67
2021/06/06 01:53:44;;;;;;;11.90;5.97;;;19.30;99.90;;;20.17;59.00;101413.22;5057480;28;20215;-69
2021/06/06 01:56:17;;;;;;;10.93;5.80;;;19.30;99.90;;;20.14;58.79;101407.22;5056771;28;20220;-67
2021/06/06 01:58:55;;;;;;;12.73;6.10;;;19.30;99.90;;;20.12;58.93;101412.63;5056402;28;20192;-68
2021/06/06 02:01:27;;;;;;;12.50;6.20;;;19.30;99.90;;;20.11;59.17;101410.91;5036557;28;20215;-67
2021/06/06 02:03:59;;;;;;;12.75;6.30;;;19.30;99.90;;;20.09;59.06;101411.97;5054835;28;20182;-69
2021/06/06 02:06:36;;;;;;;13.93;6.53;;;19.30;99.90;;;20.07;59.35;101405.91;5037513;28;20568;-67
2021/06/06 02:09:09;;;;;;;13.02;6.53;;;19.30;99.90;;;20.05;59.53;101416.66;5037881;28;20196;-67
2021/06/06 02:11:49;;;;;;;12.25;6.10;;;19.20;99.90;;;20.04;59.50;101419.41;5054692;28;20180;-67
2021/06/06 02:14:23;;;;;;;11.20;6.10;;;19.20;99.90;;;20.02;59.41;101416.84;5036400;28;20220;-67
2021/06/06 02:17:00;;;;;;;11.82;6.15;;;19.20;99.90;;;20.03;59.58;101417.72;5053373;28;20267;-67
2021/06/06 02:19:39;;;;;;;12.90;6.53;;;19.20;99.90;;;20.01;59.55;101408.97;5036586;28;20225;-67
2021/06/06 02:22:16;;;;;;;11.25;6.20;;;19.20;99.90;;;19.98;59.67;101414.50;5035960;28;20196;-67
2021/06/06 02:24:44;;;;;;;11.80;6.25;;;19.10;99.90;;;19.95;59.79;101410.22;5052585;28;20215;-68
2021/06/06 02:27:21;;;;;;;15.55;6.30;;;19.20;99.90;;;19.91;59.80;101414.88;5055466;28;20242;-68
2021/06/06 02:30:10;;;;;;;11.63;6.57;;;19.10;99.90;;;19.89;60.03;101416.78;5056161;28;20197;-67
2021/06/06 02:32:55;;;;;;;12.65;6.40;;;19.10;99.90;;;19.88;60.26;101412.44;5056826;28;20200;-68
2021/06/06 02:35:30;;;;;;;13.27;6.55;;;19.10;99.90;;;19.86;60.27;101411.66;5074629;28;20218;-66
2021/06/06 02:38:05;;;;;;;13.18;6.95;;;19.10;99.90;;;19.84;60.32;101416.22;5057985;28;20215;-67
2021/06/06 02:40:42;;;;;;;13.15;7.00;;;19.10;99.90;;;19.82;60.74;101414.63;5074335;28;20196;-67
2021/06/06 02:43:26;;;;;;;13.07;7.03;;;19.10;99.90;;;19.82;60.65;101417.28;5057020;28;20195;-67
2021/06/06 02:46:00;;;;;;;11.15;6.43;;;19.10;99.90;;;19.78;60.61;101411.31;5056702;28;20212;-68
2021/06/06 02:48:36;;;;;;;11.18;6.68;;;19.10;99.90;;;19.78;60.94;101416.63;5073466;28;20192;-67
2021/06/06 02:51:10;;;;;;;12.25;6.05;;;19.10;99.90;;;19.80;60.78;101412.09;5056227;28;20184;-67
2021/06/06 02:53:57;;;;;;;13.25;6.80;;;19.00;99.90;;;19.80;60.59;101413.88;5074272;28;20582;-67
2021/06/06 02:56:31;;;;;;;13.98;7.03;;;19.10;99.90;;;19.78;60.58;101410.47;5073232;28;20239;-66
2021/06/06 02:59:09;;;;;;;13.60;6.90;;;19.00;99.90;;;19.77;60.49;101422.91;5055783;28;20200;-67
2021/06/06 03:01:41;;;;;;;16.38;6.40;;;19.00;99.90;;;19.73;60.65;101416.06;5055588;28;20190;-67
2021/06/06 03:04:19;;;;;;;14.93;6.78;;;19.00;99.90;;;19.72;60.79;101410.88;5073780;28;20188;-67
2021/06/06 03:06:55;;;;;;;13.77;7.00;;;19.00;99.90;;;19.71;60.55;101420.63;5055635;28;20692;-67
2021/06/06 03:09:22;;;;;;;12.13;6.50;;;19.00;99.90;;;19.74;60.73;101428.41;5055686;28;20196;-65
2021/06/06 03:12:00;;;;;;;12.13;7.07;;;19.00;99.90;;;19.73;60.35;101413.41;5073466;28;20251;-66
2021/06/06 03:14:35;;;;;;;12.65;6.50;;;19.00;99.90;;;19.71;60.62;101417.97;5073027;28;20208;-67
2021/06/06 03:17:13;;;;;;;12.65;7.10;;;19.00;99.90;;;19.72;60.60;101425.00;5073980;28;20200;-67
2021/06/06 03:19:46;;;;;;;13.23;6.65;;;19.00;99.90;;;19.74;60.44;101422.25;5056498;28;20218;-67
2021/06/06 03:22:18;;;;;;;15.55;7.50;;;19.00;99.90;;;19.72;60.58;101432.97;5056086;28;20200;-67
2021/06/06 03:24:55;;;;;;;12.93;7.00;;;19.00;99.90;;;19.71;60.66;101425.94;5073465;28;20196;-66
2021/06/06 03:27:28;;;;;;;14.82;7.57;;;19.00;99.90;;;19.74;60.41;101428.41;5073530;28;20198;-67
2021/06/06 03:30:03;;;;;;;13.38;7.05;;;19.00;99.90;;;19.74;60.48;101427.56;5074276;28;20202;-67
2021/06/06 03:32:38;;;;;;;11.95;6.68;;;19.00;99.90;;;19.74;60.74;101432.88;5055634;28;20216;-67
2021/06/06 03:35:09;;;;;;;13.13;7.55;;;19.00;99.90;;;19.73;60.62;101432.03;5072182;28;20234;-68
2021/06/06 03:37:38;;;;;;;16.02;7.10;;;19.00;99.90;;;19.72;60.54;101434.78;5072351;28;20209;-68
2021/06/06 03:40:19;;;;;;;13.48;7.47;;;19.00;99.90;;;19.71;60.45;101433.91;5055468;28;20191;-66
2021/06/06 03:43:06;;;;;;;13.98;7.45;;;19.00;99.90;;;19.66;60.86;101436.00;5055312;28;20196;-68
2021/06/06 03:45:34;;;;;;;13.98;7.15;;;19.00;99.90;;;19.65;60.96;101436.97;5071815;28;20565;-69
2021/06/06 03:48:04;;;;;;;13.45;7.45;;;18.90;99.90;;;19.65;60.88;101436.97;5053971;28;20660;-68
2021/06/06 03:50:37;;;;;;;13.15;7.45;;;18.90;99.90;;;19.67;61.04;101436.88;5063054;28;20223;-67
2021/06/06 03:53:05;;;;;;;15.82;7.07;;;19.00;99.90;;;19.67;61.15;101437.72;5073594;28;20191;-69
2021/06/06 03:55:33;;;;;;;13.27;7.55;;;18.90;99.90;;;19.68;61.45;101439.44;5054635;28;20684;-67
2021/06/06 03:57:59;;;;;;;13.55;7.03;;;19.00;99.90;;;19.70;61.13;101442.84;5073480;28;20180;-67
2021/06/06 04:00:32;;;;;;;13.10;7.20;;;19.00;99.90;;;19.68;61.19;101436.78;5054769;28;20192;-68
2021/06/06 04:03:05;;;;;;;14.00;7.65;;;19.00;99.90;;;19.67;61.41;101442.19;5054728;28;20192;-67
2021/06/06 04:05:40;;;;;;;12.95;7.55;;;19.00;99.90;;;19.67;61.50;101437.72;5054978;28;20216;-68
2021/06/06 04:08:08;;;;;;;13.57;7.80;;;19.00;99.90;;;19.70;61.60;101436.66;5055003;28;20188;-67
2021/06/06 04:10:41;;;;;;;12.65;7.38;;;19.00;99.90;;;19.71;61.43;101441.88;5054912;28;20675;-67
2021/06/06 04:13:13;;;;;;;14.13;7.97;;;19.00;99.90;;;19.72;61.47;101434.78;5072611;28;20560;-67
2021/06/06 04:15:40;;;;;;;13.80;7.57;;;19.00;99.90;;;19.74;61.34;101444.34;5054667;28;20224;-67
2021/06/06 04:18:15;;;;;;;13.50;7.63;;;19.00;99.90;;;19.77;61.48;101438.84;5053444;28;20228;-68
2021/06/06 04:20:45;;;;;;;15.95;7.80;;;19.10;99.90;;;19.78;61.77;101440.53;5072207;28;20644;-68
2021/06/06 04:23:13;;;;;;;15.20;8.15;;;19.10;99.90;;;19.82;61.48;101442.06;5072892;28;20164;-67
2021/06/06 04:25:41;;;;;;;14.40;8.18;;;19.10;99.90;;;19.84;61.61;101450.78;5054512;28;20240;-67
2021/06/06 04:28:09;;;;;;;15.10;7.70;;;19.20;99.90;;;19.87;61.80;101447.94;5054662;28;20184;-66
2021/06/06 04:30:39;;;;;;;17.70;8.20;;;19.20;99.90;;;19.89;61.71;101454.00;5071001;28;20242;-67
2021/06/06 04:33:08;;;;;;;15.32;7.75;;;19.20;99.90;;;19.89;61.65;101454.00;5054719;28;20203;-67
2021/06/06 04:35:38;;;;;;;15.13;7.70;;;19.20;99.90;;;19.89;61.38;101447.84;5054401;28;20634;-66
2021/06/06 04:38:10;;;;;;;14.85;7.72;;;19.30;99.90;;;19.90;61.58;101447.75;5054341;28;20192;-67
2021/06/06 04:40:39;;;;;;;17.00;8.60;;;19.30;99.90;;;19.91;61.47;101449.44;5054227;28;20192;-68
2021/06/06 04:43:07;;;;;;;16.08;8.57;;;19.30;99.90;;;19.91;61.69;101457.41;5072202;28;20180;-69
2021/06/06 04:45:35;;;;;;;12.45;7.53;;;19.30;99.90;;;19.91;61.74;101453.88;5054427;28;20208;-68
2021/06/06 04:48:15;;;;;;;14.70;7.80;;;19.30;99.90;;;19.94;61.78;101445.75;5071364;28;20680;-68
2021/06/06 04:50:45;;;;;;;13.48;8.13;;;19.30;99.90;;;19.96;61.76;101449.13;5071913;28;20564;-67
2021/06/06 04:53:12;;;;;;;15.27;8.45;;;19.40;99.90;;;19.98;61.58;101441.91;5070778;28;20589;-68
2021/06/06 04:55:40;;;;;;;14.23;8.15;;;19.40;99.90;;;19.98;61.63;101441.91;5071165;28;20215;-67
2021/06/06 04:58:11;;;;;;;16.75;8.30;;;19.40;99.90;;;20.00;61.76;101442.69;5072738;28;20180;-67
2021/06/06 05:00:41;;;;;;;15.40;8.63;;;19.50;99.90;;;20.04;61.72;101438.00;5071944;28;20211;-66
2021/06/06 05:03:09;;;;;;;15.02;8.77;;;19.50;99.90;;;20.09;61.49;101438.56;5071423;28;20185;-67
2021/06/06 05:05:35;;;;;;;14.40;8.23;;;19.50;99.90;;;20.12;61.56;101438.34;5055229;28;20219;-67
2021/06/06 05:08:06;;;;;;;13.38;8.30;;;19.60;99.90;;;20.16;61.49;101442.56;5076194;28;20729;-67
2021/06/06 05:10:37;;;;;;;13.38;8.00;;;19.60;99.90;;;20.17;61.30;101442.47;5057858;28;20184;-67
2021/06/06 05:13:07;;;;;;;13.82;8.07;;;19.70;99.90;;;20.21;61.41;101438.63;5075953;28;20189;-67
2021/06/06 05:15:34;;;;;;;15.10;8.60;;;19.70;99.90;;;20.25;61.63;101441.94;5074350;28;20274;-66
2021/06/06 05:18:03;;;;;;;13.40;8.30;;;19.80;99.90;;;20.28;61.59;101444.44;5075055;28;20689;-67
2021/06/06 05:20:39;;;;;;;16.65;7.88;;;19.80;99.90;;;20.36;61.57;101447.44;5057836;28;20583;-67
2021/06/06 05:23:08;;;;;;;15.55;8.75;;;19.80;99.90;;;20.42;61.38;101444.34;5076038;28;20522;-67
2021/06/06 05:25:38;;;;;;;13.27;8.40;;;19.90;99.90;;;20.50;61.10;101440.22;5057774;28;20719;-67
2021/06/06 05:28:06;;;;;;;13.15;7.97;;;20.00;99.90;;;20.56;61.58;101447.81;5057965;28;20200;-67
2021/06/06 05:30:37;;;;;;;13.95;8.02;;;20.00;99.90;;;20.62;61.35;101444.72;5076086;28;20188;-67
2021/06/06 05:33:06;;;;;;;15.00;8.80;;;20.20;99.90;;;20.70;61.41;101452.19;5075824;28;20184;-66
2021/06/06 05:35:35;;;;;;;15.63;9.40;;;20.30;99.90;;;20.74;61.59;101449.22;5075225;28;20216;-69
2021/06/06 05:38:03;;;;;;;13.95;8.70;;;20.30;99.90;;;20.77;62.01;101445.50;5073886;28;20188;-67
2021/06/06 05:40:33;;;;;;;12.88;8.20;;;20.40;99.90;;;20.81;61.88;101449.66;5075604;28;20718;-67
2021/06/06 05:43:01;;;;;;;14.43;8.57;;;20.40;99.90;;;20.89;62.05;101447.31;5075732;28;20605;-67
2021/06/06 05:45:29;;;;;;;14.93;9.02;;;20.50;99.90;;;20.96;62.02;101448.63;5075682;28;20211;-67
2021/06/06 05:47:55;;;;;;;16.10;9.57;;;20.60;99.90;;;21.05;62.24;101458.66;5075531;28;20733;-67
2021/06/06 05:50:25;;;;;;;15.30;8.77;;;20.70;99.90;;;21.10;61.90;101456.50;5074023;28;20196;-67
2021/06/06 05:53:09;;;;;;;16.05;9.43;;;20.80;99.90;;;21.16;62.43;101456.09;5072390;28;20283;-67
2021/06/06 05:55:39;;;;;;;15.90;9.45;;;21.00;99.90;;;21.22;62.27;101454.84;5074294;28;20220;-67
2021/06/06 05:58:07;;;;;;;14.98;9.20;;;21.00;99.90;;;21.27;62.59;101450.88;5073645;28;20250;-67
2021/06/06 06:00:37;;;;;;;14.90;8.98;;;21.10;99.90;;;21.32;62.22;101453.25;5075014;28;20657;-66
2021/06/06 06:03:04;;;;;;;15.65;9.35;;;21.10;99.90;;;21.40;62.31;101458.88;5056618;28;20196;-68
2021/06/06 06:05:31;;;;;;;15.65;9.40;;;21.20;99.90;;;21.46;62.31;101455.75;5074677;28;20226;-68
2021/06/06 06:07:57;;;;;;;14.13;9.07;;;21.30;99.90;;;21.53;62.42;101460.56;5074888;28;20189;-67
2021/06/06 06:10:28;;;;;;;14.13;9.20;;;21.30;99.90;;;21.59;62.08;101460.13;5074639;28;20275;-66
2021/06/06 06:12:56;;;;;;;15.90;9.60;;;21.40;99.90;;;21.65;62.08;101453.50;5056708;28;20602;-67
2021/06/06 06:15:23;;;;;;;14.85;9.10;;;21.50;99.90;;;21.72;62.13;101450.28;5074520;28;20866;-69
2021/06/06 06:17:49;;;;;;;14.05;8.52;;;21.60;99.90;;;21.82;62.07;101456.69;5056193;28;20246;-67
2021/06/06 06:20:21;;;;;;;15.30;9.38;;;21.70;99.90;;;21.90;62.14;101462.31;5074218;28;20265;-67
2021/06/06 06:22:48;;;;;;;14.65;9.52;;;21.80;99.90;;;21.98;62.34;101464.44;5056368;28;20196;-68
2021/06/06 06:25:19;;;;;;;14.90;9.68;;;21.80;99.90;;;22.05;62.16;101469.19;5074240;28;20200;-68
2021/06/06 06:27:46;;;;;;;15.50;10.10;;;21.90;99.90;;;22.06;62.05;101473.56;5074511;28;20265;-66
2021/06/06 06:30:31;;;;;;;16.80;10.43;;;21.90;99.90;;;22.12;61.90;101462.44;5056108;28;20572;-67
2021/06/06 06:32:58;;;;;;;15.90;9.82;;;22.00;99.90;;;22.17;61.90;101465.63;5056743;28;20252;-67
2021/06/06 06:35:26;;;;;;;19.60;10.80;;;22.10;99.90;;;22.27;62.29;101471.16;5073119;28;20232;-67
2021/06/06 06:37:52;;;;;;;14.93;9.88;;;22.20;99.90;;;22.34;61.99;101467.03;5073344;28;20196;-67
2021/06/06 06:40:20;;;;;;;16.70;10.32;;;22.30;99.90;;;22.43;61.88;101466.38;5056198;28;20692;-68
2021/06/06 06:42:47;;;;;;;15.45;9.45;;;22.40;99.90;;;22.55;61.86;101472.63;5073456;28;20189;-67
2021/06/06 06:45:18;;;;;;;15.40;9.90;;;22.50;99.90;;;22.65;61.47;101469.16;5074355;28;20203;-66
2021/06/06 06:47:46;;;;;;;18.52;10.23;;;22.70;99.90;;;22.73;61.41;101464.09;5074599;28;20187;-67
2021/06/06 06:50:16;;;;;;;16.08;10.32;;;22.80;99.90;;;22.78;61.13;101469.94;5071667;28;20191;-64
2021/06/06 06:52:43;;;;;;;15.38;9.65;;;22.90;99.90;;;22.83;60.96;101473.09;5073931;28;20198;-68
2021/06/06 06:55:14;;;;;;;17.08;10.65;;;23.00;99.90;;;22.92;61.07;101471.56;5055053;28;20291;-69
2021/06/06 06:57:40;;;;;;;16.13;9.85;;;23.10;99.90;;;23.02;60.33;101483.22;5073485;28;20575;-67
2021/06/06 07:00:13;;;;;;;15.57;10.48;;;23.20;99.90;;;23.14;60.22;101477.78;5071932;28;20189;-67
2021/06/06 07:02:40;;;;;;;16.52;10.15;;;23.40;99.90;;;23.18;60.21;101473.06;5055291;28;20203;-68
2021/06/06 07:05:09;;;;;;;16.30;10.35;;;23.50;99.90;;;23.22;60.56;101478.06;5072723;28;20184;-67
2021/06/06 07:07:36;;;;;;;15.60;10.60;;;23.60;99.90;;;23.32;60.05;101475.53;5072697;28;20242;-67
2021/06/06 07:10:04;;;;;;;15.95;11.25;;;23.60;99.90;;;23.40;60.30;101478.47;5055053;28;20254;-68
2021/06/06 07:12:31;;;;;;;17.60;11.18;;;23.70;99.90;;;23.49;59.64;101483.09;5072929;28;20188;-67
2021/06/06 07:14:57;;;;;;;15.48;10.32;;;24.00;99.90;;;23.57;59.33;101469.97;5072795;28;20211;-67
2021/06/06 07:17:24;;;;;;;16.40;10.98;;;24.30;99.90;;;23.64;59.05;101479.19;5073150;28;20177;-67
2021/06/06 07:19:50;;;;;;;17.20;11.00;;;24.50;99.90;;;23.66;58.97;101479.94;5072832;28;20192;-68
2021/06/06 07:22:18;;;;;;;15.55;10.40;;;24.60;99.90;;;23.75;58.54;101478.31;5046472;28;20199;-67
2021/06/06 07:24:45;;;;;;;14.73;9.80;;;24.90;99.90;;;23.85;58.09;101474.78;5073059;28;20657;-68
2021/06/06 07:27:12;;;;;;;15.40;10.32;;;24.90;99.90;;;23.88;58.14;101468.38;5073078;28;20254;-67
2021/06/06 07:29:39;;;;;;;13.73;9.80;;;24.80;99.90;;;23.86;58.20;101464.97;5055001;28;20204;-70
2021/06/06 07:32:07;;;;;;;14.60;9.70;;;24.70;99.90;;;23.87;58.41;101467.50;5071398;28;20780;-67
2021/06/06 07:34:33;;;;;;;15.05;9.85;;;24.60;99.90;;;23.92;57.92;101465.31;5072417;28;20210;-68
2021/06/06 07:37:04;;;;;;;13.68;9.13;;;24.50;99.90;;;24.00;57.35;101475.41;5072434;28;20544;-67
2021/06/06 07:39:33;;;;;;;14.50;9.52;;;24.50;99.90;;;24.03;57.74;101472.50;5071324;28;20287;-67
2021/06/06 07:42:00;;;;;;;15.90;10.60;;;24.50;99.90;;;24.04;57.65;101461.69;5054833;28;20381;-67
2021/06/06 07:44:28;;;;;;;14.27;9.88;;;24.50;99.90;;;24.05;57.50;101466.03;5072720;28;20275;-69
2021/06/06 07:46:54;;;;;;;16.80;10.45;;;24.40;99.90;;;24.08;56.91;101465.78;5073109;28;20219;-68
2021/06/06 07:49:21;;;;;;;15.32;9.77;;;24.40;99.90;;;24.15;57.28;101460.78;5054882;28;20214;-68
2021/06/06 07:51:47;;;;;;;14.27;9.30;;;24.40;99.90;;;24.21;57.10;101460.28;5053437;28;20203;-68
2021/06/06 07:54:14;;;;;;;15.15;9.90;;;24.50;99.90;;;24.31;56.95;101455.88;5071182;28;20215;-68
2021/06/06 07:56:41;;;;;;;16.42;10.55;;;24.60;99.90;;;24.43;56.68;101461.06;5071377;28;20218;-68
2021/06/06 07:59:08;;;;;;;13.68;8.77;;;24.70;99.90;;;24.54;56.20;101465.50;5054950;28;20560;-68
2021/06/06 08:01:34;;;;;;;14.57;8.90;;;24.80;99.90;;;24.65;55.60;101470.81;5073105;28;20239;-67
2021/06/06 08:04:00;;;;;;;14.70;9.40;;;25.00;99.90;;;24.78;55.10;101469.69;5073217;28;20207;-68
2021/06/06 08:06:27;;;;;;;15.07;8.77;;;25.20;99.90;;;24.92;54.92;101465.84;5072828;28;20200;-68
2021/06/06 08:08:54;;;;;;;12.55;7.85;;;25.40;99.90;;;25.06;54.39;101461.97;5072911;28;20184;-68
2021/06/06 08:11:21;;;;;;;14.32;7.70;;;25.60;99.90;;;25.17;53.48;101459.25;5072622;28;20195;-67
2021/06/06 08:13:50;;;;;;;12.90;7.82;;;25.70;99.90;;;25.27;52.77;101463.66;5072676;28;20188;-68
2021/06/06 08:16:17;;;;;;;11.95;7.45;;;25.80;99.90;;;25.36;52.89;101468.25;5072810;28;20207;-68
2021/06/06 08:18:46;;;;;;;13.75;7.25;;;25.90;99.90;;;25.45;52.16;101461.25;5055028;28;20652;-67
2021/06/06 08:21:18;;;;;;;13.02;6.93;;;26.00;99.80;;;25.56;51.64;101464.69;5070695;28;20219;-68
2021/06/06 08:23:46;;;;;;;13.55;7.63;;;26.20;99.20;;;25.66;51.24;101464.72;5073086;28;20199;-68
2021/06/06 08:26:14;;;;;;;13.18;7.13;;;26.30;98.50;;;25.75;50.77;101464.75;5072646;28;20200;-68
2021/06/06 08:28:41;;;;;;;11.07;6.40;;;26.40;98.10;;;25.85;49.88;101464.78;5055513;28;20660;-70
2021/06/06 08:31:12;;;;;;;14.57;6.32;;;26.50;97.30;;;25.91;48.81;101464.22;5070907;28;20200;-67
2021/06/06 08:33:40;;;;;;;10.07;5.32;;;26.60;95.90;;;25.98;48.00;101465.38;5070009;28;20196;-68
2021/06/06 08:36:11;;;;;;;12.38;6.15;;;26.60;95.30;;;26.09;47.65;101462.59;5072430;28;20208;-67
2021/06/06 08:38:38;;;;;;;11.00;6.15;;;26.70;94.70;;;26.21;47.37;101463.34;5073862;28;20203;-68
2021/06/06 08:41:12;;;;;;;12.05;6.35;;;26.80;94.20;;;26.32;46.43;101461.38;5073098;28;20274;-69
2021/06/06 08:43:46;;;;;;;12.15;6.50;;;26.90;94.10;;;26.45;46.77;101463.78;5077783;28;20172;-68
2021/06/06 08:46:15;;;;;;;13.02;6.18;;;27.00;93.70;;;26.51;46.43;101461.38;5077410;28;20235;-68
2021/06/06 08:48:42;;;;;;;11.13;6.38;;;27.10;93.30;;;26.56;46.10;101455.59;5076544;28;20179;-68
2021/06/06 08:51:24;;;;;;;11.95;5.70;;;27.20;93.10;;;26.62;45.36;101463.94;5075259;28;20605;-68
2021/06/06 08:54:03;;;;;;;10.23;5.47;;;27.30;92.00;;;26.66;44.57;101457.28;5064214;28;20194;-68
2021/06/06 08:56:35;;;;;;;9.82;5.03;;;27.30;91.40;;;26.71;44.55;101465.78;5076172;28;20286;-71
2021/06/06 08:59:11;;;;;;;10.75;5.55;;;27.40;91.00;;;26.75;44.18;101461.81;5076152;28;20233;-68
2021/06/06 09:01:45;;;;;;;11.23;5.65;;;27.40;91.00;;;26.83;44.25;101464.63;5075559;28;20187;-67
2021/06/06 09:04:20;;;;;;;10.52;5.32;;;27.50;90.80;;;26.88;44.60;101462.38;5075114;28;20196;-67
2021/06/06 09:06:52;;;;;;;10.13;5.75;;;27.60;90.50;;;26.90;44.33;101465.78;5074350;28;20225;-70
2021/06/06 09:09:23;;;;;;;11.93;5.35;;;27.60;90.30;;;26.96;43.82;101465.19;5076005;28;20702;-69
2021/06/06 09:11:50;;;;;;;10.38;5.53;;;27.70;89.50;;;27.01;43.29;101462.09;5057484;28;20184;-68
2021/06/06 09:14:17;;;;;;;10.10;5.32;;;27.80;88.60;;;27.00;43.01;101466.59;5075180;28;20699;-68
2021/06/06 09:17:03;;;;;;;10.95;5.82;;;27.70;87.20;;;26.93;42.37;101460.09;5074305;28;20219;-70
2021/06/06 09:19:44;;;;;;;10.45;5.32;;;27.60;86.90;;;26.93;42.69;101465.47;5075676;28;20192;-68
2021/06/06 09:22:12;;;;;;;11.20;5.45;;;27.50;86.10;;;26.81;42.07;101466.63;5074921;28;20214;-67
2021/06/06 09:24:45;;;;;;;11.00;6.10;;;27.30;85.40;;;26.76;41.68;101457.31;5074925;28;20240;-67
2021/06/06 09:27:23;;;;;;;10.20;5.10;;;27.20;85.00;;;26.92;41.64;101463.78;5073668;28;20261;-67
2021/06/06 09:30:01;;;;;;;10.65;5.07;;;27.40;85.00;;;27.09;40.56;101460.34;5057293;28;20202;-69
2021/06/06 09:32:30;;;;;;;10.20;4.95;;;27.60;83.30;;;26.99;40.78;101459.50;5056923;28;20210;-69
2021/06/06 09:35:05;;;;;;;9.00;4.80;;;27.50;82.60;;;26.80;40.44;101454.19;5057166;28;20302;-67
2021/06/06 09:37:35;;;;;;;11.30;5.22;;;27.40;82.30;;;26.66;40.97;101453.78;5075050;28;20187;-67
2021/06/06 09:40:11;;;;;;;8.93;4.68;;;27.30;82.30;;;26.55;41.21;101448.50;5057041;28;20199;-68
2021/06/06 09:42:43;;;;;;;9.23;5.00;;;27.10;82.40;;;26.50;41.62;101456.13;5073841;28;20600;-68
2021/06/06 09:45:20;;;;;;;9.35;4.90;;;27.10;82.80;;;26.60;41.23;101451.63;5074947;28;20192;-68
2021/06/06 09:48:06;;;;;;;11.10;4.68;;;27.20;82.70;;;26.92;40.54;101458.41;5057290;28;20191;-68
2021/06/06 09:50:37;;;;;;;9.88;4.85;;;27.50;81.70;;;27.23;39.54;101452.81;5074952;28;20271;-68
2021/06/06 09:53:24;;;;;;;9.38;4.40;;;27.90;80.20;;;27.54;39.03;101451.59;5072857;28;20188;-67
2021/06/06 09:55:51;;;;;;;9.57;4.68;;;28.30;78.80;;;27.78;38.35;101454.59;5056897;28;20223;-68
2021/06/06 09:58:30;;;;;;;9.70;4.95;;;28.70;77.30;;;27.96;38.13;101450.13;5075220;28;20184;-68
2021/06/06 10:01:05;;;;;;;9.95;4.32;;;28.90;76.80;;;28.10;38.04;101445.06;5074983;28;20278;-68
2021/06/06 10:03:37;;;;;;;10.23;5.40;;;29.10;75.60;;;28.23;37.87;101444.72;5058662;28;20194;-69
2021/06/06 10:06:24;;;;;;;9.20;4.68;;;29.20;75.50;;;28.30;37.17;101448.50;5073998;28;20892;-68
2021/06/06 10:09:00;;;;;;;9.80;4.55;;;29.30;74.40;;;28.32;36.30;101446.47;5056284;28;20196;-67
2021/06/06 10:11:45;;;;;;;9.00;4.40;;;29.30;72.90;;;28.31;35.99;101451.03;5056512;28;20195;-69
2021/06/06 10:14:12;;;;;;;9.38;4.50;;;29.30;72.90;;;28.28;35.79;101445.91;5056310;28;20211;-69
2021/06/06 10:16:45;;;;;;;8.30;4.25;;;29.20;72.30;;;28.27;36.05;101454.16;5074872;28;20204;-70
2021/06/06 10:19:20;;;;;;;9.93;4.38;;;29.10;72.20;;;28.30;36.11;101443.94;5074770;28;20191;-68
2021/06/06 10:21:50;;;;;;;12.75;6.53;;;29.10;72.30;;;28.22;35.99;101448.38;5056212;28;20713;-68
2021/06/06 10:24:23;;;;;;;15.40;8.50;;;29.00;71.60;;;28.29;35.83;101449.47;5074262;28;20251;-69